sensor_id;sensor_type;location;lat;lon;timestamp;temperature;humidity
1277;DHT22;631;51.024;13.826;2022-11-25T00:01:21;5.10;99.90
1277;DHT22;631;51.024;13.826;2022-11-25T00:03:47;5.10;99.90
1277;DHT22;631;51.024;13.826;2022-11-25T00:06:34;5.00;99.90
1277;DHT22;631;51.024;13.826;2022-11-25T00:09:09;5.00;99.90
1277;DHT22;631;51.024;13.826;2022-11-25T00:11:36;5.00;99.90
1277;DHT22;631;51.024;13.826;2022-11-25T00:14:03;5.00;99.90
1277;DHT22;631;51.024;13.826;2022-11-25T00:16:29;5.10;99.90
1277;DHT22;631;51.024;13.826;2022-11-25T00:18:57;5.10;99.90
1277;DHT22;631;51.024;13.826;2022-11-25T00:21:26;5.10;99.90
1277;DHT22;631;51.024;13.826;2022-11-25T00:23:52;5.20;99.90
1277;DHT22;631;51.024;13.826;2022-11-25T00:26:18;5.20;99.90
1277;DHT22;631;51.024;13.826;2022-11-25T00:28:45;5.20;99.90
1277;DHT22;631;51.024;13.826;2022-11-25T00:31:17;5.30;99.90
1277;DHT22;631;51.024;13.826;2022-11-25T00:33:43;5.30;99.90
1277;DHT22;631;51.024;13.826;2022-11-25T00:36:21;5.40;99.90
1277;DHT22;631;51.024;13.826;2022-11-25T00:38:54;5.50;99.90
1277;DHT22;631;51.024;13.826;2022-11-25T00:41:20;5.50;99.90
1277;DHT22;631;51.024;13.826;2022-11-25T00:44:05;5.50;99.90
1277;DHT22;631;51.024;13.826;2022-11-25T00:46:49;5.50;99.90
1277;DHT22;631;51.024;13.826;2022-11-25T00:49:14;5.60;99.90
1277;DHT22;631;51.024;13.826;2022-11-25T00:51:40;5.60;99.90
1277;DHT22;631;51.024;13.826;2022-11-25T00:54:06;5.60;99.90
1277;DHT22;631;51.024;13.826;2022-11-25T00:56:31;5.60;99.90
1277;DHT22;631;51.024;13.826;2022-11-25T00:58:57;5.60;99.90
1277;DHT22;631;51.024;13.826;2022-11-25T01:01:23;5.60;99.90
1277;DHT22;631;51.024;13.826;2022-11-25T01:03:50;5.60;99.90
1277;DHT22;631;51.024;13.826;2022-11-25T01:06:16;5.60;99.90
1277;DHT22;631;51.024;13.826;2022-11-25T01:08:41;5.60;99.90
1277;DHT22;631;51.024;13.826;2022-11-25T01:11:10;5.60;99.90
1277;DHT22;631;51.024;13.826;2022-11-25T01:13:36;5.60;99.90
1277;DHT22;631;51.024;13.826;2022-11-25T01:16:03;5.60;99.90
1277;DHT22;631;51.024;13.826;2022-11-25T01:18:30;5.60;99.90
1277;DHT22;631;51.024;13.826;2022-11-25T01:21:14;5.60;99.90
1277;DHT22;631;51.024;13.826;2022-11-25T01:23:40;5.60;99.90
1277;DHT22;631;51.024;13.826;2022-11-25T01:26:09;5.50;99.90
1277;DHT22;631;51.024;13.826;2022-11-25T01:28:35;5.30;99.90
1277;DHT22;631;51.024;13.826;2022-11-25T01:31:11;5.20;99.90
1277;DHT22;631;51.024;13.826;2022-11-25T01:33:37;5.10;99.90
1277;DHT22;631;51.024;13.826;2022-11-25T01:36:06;5.00;99.90
1277;DHT22;631;51.024;13.826;2022-11-25T01:38:33;4.90;99.90
1277;DHT22;631;51.024;13.826;2022-11-25T01:40:59;4.80;99.90
1277;DHT22;631;51.024;13.826;2022-11-25T01:43:26;4.80;99.90
1277;DHT22;631;51.024;13.826;2022-11-25T01:45:54;4.80;99.90
1277;DHT22;631;51.024;13.826;2022-11-25T01:48:29;4.80;99.90
1277;DHT22;631;51.024;13.826;2022-11-25T01:50:57;4.70;99.90
1277;DHT22;631;51.024;13.826;2022-11-25T01:53:24;4.70;99.90
1277;DHT22;631;51.024;13.826;2022-11-25T01:55:53;4.70;99.90
1277;DHT22;631;51.024;13.826;2022-11-25T01:58:25;4.70;99.90
1277;DHT22;631;51.024;13.826;2022-11-25T02:00:53;4.70;99.90
1277;DHT22;631;51.024;13.826;2022-11-25T02:03:32;4.60;99.90
1277;DHT22;631;51.024;13.826;2022-11-25T02:06:07;4.70;99.90
1277;DHT22;631;51.024;13.826;2022-11-25T02:08:34;4.70;99.90
1277;DHT22;631;51.024;13.826;2022-11-25T02:11:00;4.70;99.90
1277;DHT22;631;51.024;13.826;2022-11-25T02:13:29;4.70;99.90
1277;DHT22;631;51.024;13.826;2022-11-25T02:15:56;4.80;99.90
1277;DHT22;631;51.024;13.826;2022-11-25T02:18:21;4.80;99.90
1277;DHT22;631;51.024;13.826;2022-11-25T02:20:47;4.90;99.90
1277;DHT22;631;51.024;13.826;2022-11-25T02:23:27;4.90;99.90
1277;DHT22;631;51.024;13.826;2022-11-25T02:25:57;4.90;99.90
1277;DHT22;631;51.024;13.826;2022-11-25T02:28:25;5.00;99.90
1277;DHT22;631;51.024;13.826;2022-11-25T02:30:51;5.00;99.90
1277;DHT22;631;51.024;13.826;2022-11-25T02:33:18;5.00;99.90
1277;DHT22;631;51.024;13.826;2022-11-25T02:38:11;5.00;99.90
1277;DHT22;631;51.024;13.826;2022-11-25T02:41:04;5.00;99.90
1277;DHT22;631;51.024;13.826;2022-11-25T02:43:30;4.90;99.90
1277;DHT22;631;51.024;13.826;2022-11-25T02:46:05;5.00;99.90
1277;DHT22;631;51.024;13.826;2022-11-25T02:48:34;5.00;99.90
1277;DHT22;631;51.024;13.826;2022-11-25T02:51:01;5.00;99.90
1277;DHT22;631;51.024;13.826;2022-11-25T02:53:27;5.00;99.90
1277;DHT22;631;51.024;13.826;2022-11-25T02:55:52;5.00;99.90
1277;DHT22;631;51.024;13.826;2022-11-25T02:58:18;5.00;99.90
1277;DHT22;631;51.024;13.826;2022-11-25T03:00:44;5.00;99.90
1277;DHT22;631;51.024;13.826;2022-11-25T03:03:10;5.10;99.90
1277;DHT22;631;51.024;13.826;2022-11-25T03:05:36;5.00;99.90
1277;DHT22;631;51.024;13.826;2022-11-25T03:08:03;5.10;99.90
1277;DHT22;631;51.024;13.826;2022-11-25T03:10:29;5.10;99.90
1277;DHT22;631;51.024;13.826;2022-11-25T03:12:55;5.10;99.90
1277;DHT22;631;51.024;13.826;2022-11-25T03:15:21;5.20;99.90
1277;DHT22;631;51.024;13.826;2022-11-25T03:17:46;5.10;99.90
1277;DHT22;631;51.024;13.826;2022-11-25T03:20:12;5.20;99.90
1277;DHT22;631;51.024;13.826;2022-11-25T03:22:40;5.20;99.90
1277;DHT22;631;51.024;13.826;2022-11-25T03:25:06;5.20;99.90
1277;DHT22;631;51.024;13.826;2022-11-25T03:27:33;5.20;99.90
1277;DHT22;631;51.024;13.826;2022-11-25T03:29:58;5.20;99.90
1277;DHT22;631;51.024;13.826;2022-11-25T03:32:24;5.20;99.90
1277;DHT22;631;51.024;13.826;2022-11-25T03:34:50;5.20;99.90
1277;DHT22;631;51.024;13.826;2022-11-25T03:37:15;5.20;99.90
1277;DHT22;631;51.024;13.826;2022-11-25T03:39:41;5.20;99.90
1277;DHT22;631;51.024;13.826;2022-11-25T03:42:06;5.30;99.90
1277;DHT22;631;51.024;13.826;2022-11-25T03:44:32;5.30;99.90
1277;DHT22;631;51.024;13.826;2022-11-25T03:46:58;5.30;99.90
1277;DHT22;631;51.024;13.826;2022-11-25T03:49:23;5.30;99.90
1277;DHT22;631;51.024;13.826;2022-11-25T03:51:49;5.30;99.90
1277;DHT22;631;51.024;13.826;2022-11-25T03:54:14;5.30;99.90
1277;DHT22;631;51.024;13.826;2022-11-25T03:56:40;5.30;99.90
1277;DHT22;631;51.024;13.826;2022-11-25T03:59:06;5.30;99.90
1277;DHT22;631;51.024;13.826;2022-11-25T04:01:32;5.20;99.90
1277;DHT22;631;51.024;13.826;2022-11-25T04:03:57;5.30;99.90
1277;DHT22;631;51.024;13.826;2022-11-25T04:06:23;5.30;99.90
1277;DHT22;631;51.024;13.826;2022-11-25T04:08:49;5.30;99.90
1277;DHT22;631;51.024;13.826;2022-11-25T04:11:15;5.30;99.90
1277;DHT22;631;51.024;13.826;2022-11-25T04:13:40;5.40;99.90
1277;DHT22;631;51.024;13.826;2022-11-25T04:16:12;5.40;99.90
1277;DHT22;631;51.024;13.826;2022-11-25T04:18:40;5.40;99.90
1277;DHT22;631;51.024;13.826;2022-11-25T04:21:06;5.40;99.90
1277;DHT22;631;51.024;13.826;2022-11-25T04:23:31;5.40;99.90
1277;DHT22;631;51.024;13.826;2022-11-25T04:25:57;5.40;99.90
1277;DHT22;631;51.024;13.826;2022-11-25T04:28:22;5.40;99.90
1277;DHT22;631;51.024;13.826;2022-11-25T04:30:48;5.40;99.90
1277;DHT22;631;51.024;13.826;2022-11-25T04:33:13;5.40;99.90
1277;DHT22;631;51.024;13.826;2022-11-25T04:35:39;5.40;99.90
1277;DHT22;631;51.024;13.826;2022-11-25T04:38:04;5.40;99.90
1277;DHT22;631;51.024;13.826;2022-11-25T04:40:30;5.40;99.90
1277;DHT22;631;51.024;13.826;2022-11-25T04:42:56;5.40;99.90
1277;DHT22;631;51.024;13.826;2022-11-25T04:45:21;5.40;99.90
1277;DHT22;631;51.024;13.826;2022-11-25T04:47:47;5.40;99.90
1277;DHT22;631;51.024;13.826;2022-11-25T04:50:15;5.40;99.90
1277;DHT22;631;51.024;13.826;2022-11-25T04:52:42;5.40;99.90
1277;DHT22;631;51.024;13.826;2022-11-25T04:55:08;5.50;99.90
1277;DHT22;631;51.024;13.826;2022-11-25T04:57:33;5.50;99.90
1277;DHT22;631;51.024;13.826;2022-11-25T04:59:59;5.50;99.90
1277;DHT22;631;51.024;13.826;2022-11-25T05:02:26;5.50;99.90
1277;DHT22;631;51.024;13.826;2022-11-25T05:04:54;5.50;99.90
1277;DHT22;631;51.024;13.826;2022-11-25T05:07:22;5.50;99.90
1277;DHT22;631;51.024;13.826;2022-11-25T05:09:48;5.50;99.90
1277;DHT22;631;51.024;13.826;2022-11-25T05:12:22;5.50;99.90
1277;DHT22;631;51.024;13.826;2022-11-25T05:14:48;5.40;99.90
1277;DHT22;631;51.024;13.826;2022-11-25T05:17:16;5.40;99.90
1277;DHT22;631;51.024;13.826;2022-11-25T05:19:42;5.40;99.90
1277;DHT22;631;51.024;13.826;2022-11-25T05:22:17;5.30;99.90
1277;DHT22;631;51.024;13.826;2022-11-25T05:24:43;5.30;99.90
1277;DHT22;631;51.024;13.826;2022-11-25T05:27:09;5.20;99.90
1277;DHT22;631;51.024;13.826;2022-11-25T05:29:35;5.10;99.90
1277;DHT22;631;51.024;13.826;2022-11-25T05:32:01;5.00;99.90
1277;DHT22;631;51.024;13.826;2022-11-25T05:34:27;4.90;99.90
1277;DHT22;631;51.024;13.826;2022-11-25T05:36:53;4.90;99.90
1277;DHT22;631;51.024;13.826;2022-11-25T05:39:18;4.80;99.90
1277;DHT22;631;51.024;13.826;2022-11-25T05:41:44;4.70;99.90
1277;DHT22;631;51.024;13.826;2022-11-25T05:44:09;4.60;99.90
1277;DHT22;631;51.024;13.826;2022-11-25T05:46:35;4.60;99.90
1277;DHT22;631;51.024;13.826;2022-11-25T05:49:01;4.60;99.90
1277;DHT22;631;51.024;13.826;2022-11-25T05:51:27;4.50;99.90
1277;DHT22;631;51.024;13.826;2022-11-25T05:53:54;4.50;99.90
1277;DHT22;631;51.024;13.826;2022-11-25T05:56:20;4.40;99.90
1277;DHT22;631;51.024;13.826;2022-11-25T05:58:46;4.30;99.90
1277;DHT22;631;51.024;13.826;2022-11-25T06:01:14;4.30;99.90
1277;DHT22;631;51.024;13.826;2022-11-25T06:03:40;4.20;99.90
1277;DHT22;631;51.024;13.826;2022-11-25T06:06:07;4.20;99.90
1277;DHT22;631;51.024;13.826;2022-11-25T06:08:35;4.10;99.90
1277;DHT22;631;51.024;13.826;2022-11-25T06:11:06;4.10;99.90
1277;DHT22;631;51.024;13.826;2022-11-25T06:13:32;4.00;99.90
1277;DHT22;631;51.024;13.826;2022-11-25T06:15:58;4.10;99.90
1277;DHT22;631;51.024;13.826;2022-11-25T06:18:23;4.00;99.90
1277;DHT22;631;51.024;13.826;2022-11-25T06:20:58;4.00;99.90
1277;DHT22;631;51.024;13.826;2022-11-25T06:23:24;3.90;99.90
1277;DHT22;631;51.024;13.826;2022-11-25T06:25:51;3.90;99.90
1277;DHT22;631;51.024;13.826;2022-11-25T06:28:16;3.90;99.90
1277;DHT22;631;51.024;13.826;2022-11-25T06:30:42;3.80;99.90
1277;DHT22;631;51.024;13.826;2022-11-25T06:33:07;3.80;99.90
1277;DHT22;631;51.024;13.826;2022-11-25T06:35:33;3.80;99.90
1277;DHT22;631;51.024;13.826;2022-11-25T06:37:59;3.80;99.90
1277;DHT22;631;51.024;13.826;2022-11-25T06:40:25;3.70;99.90
1277;DHT22;631;51.024;13.826;2022-11-25T06:42:51;3.60;99.90
1277;DHT22;631;51.024;13.826;2022-11-25T06:45:16;3.50;99.90
1277;DHT22;631;51.024;13.826;2022-11-25T06:47:42;3.50;99.90
1277;DHT22;631;51.024;13.826;2022-11-25T06:50:08;3.40;99.90
1277;DHT22;631;51.024;13.826;2022-11-25T06:52:34;3.40;99.90
1277;DHT22;631;51.024;13.826;2022-11-25T06:55:00;3.30;99.90
1277;DHT22;631;51.024;13.826;2022-11-25T06:57:25;3.30;99.90
1277;DHT22;631;51.024;13.826;2022-11-25T06:59:51;3.30;99.90
1277;DHT22;631;51.024;13.826;2022-11-25T07:02:16;3.30;99.90
1277;DHT22;631;51.024;13.826;2022-11-25T07:04:42;3.30;99.90
1277;DHT22;631;51.024;13.826;2022-11-25T07:07:09;3.30;99.90
1277;DHT22;631;51.024;13.826;2022-11-25T07:09:34;3.30;99.90
1277;DHT22;631;51.024;13.826;2022-11-25T07:12:00;3.20;99.90
1277;DHT22;631;51.024;13.826;2022-11-25T07:14:26;3.20;99.90
1277;DHT22;631;51.024;13.826;2022-11-25T07:16:52;3.20;99.90
1277;DHT22;631;51.024;13.826;2022-11-25T07:19:18;3.30;99.90
1277;DHT22;631;51.024;13.826;2022-11-25T07:21:44;3.20;99.90
1277;DHT22;631;51.024;13.826;2022-11-25T07:24:13;3.20;99.90
1277;DHT22;631;51.024;13.826;2022-11-25T07:26:40;3.20;99.90
1277;DHT22;631;51.024;13.826;2022-11-25T07:29:11;3.20;99.90
1277;DHT22;631;51.024;13.826;2022-11-25T07:31:43;3.20;99.90
1277;DHT22;631;51.024;13.826;2022-11-25T07:34:17;3.20;99.90
1277;DHT22;631;51.024;13.826;2022-11-25T07:36:44;3.20;99.90
1277;DHT22;631;51.024;13.826;2022-11-25T07:39:15;3.20;99.90
1277;DHT22;631;51.024;13.826;2022-11-25T07:41:42;3.20;99.90
1277;DHT22;631;51.024;13.826;2022-11-25T07:44:11;3.30;99.90
1277;DHT22;631;51.024;13.826;2022-11-25T07:46:39;3.40;99.90
1277;DHT22;631;51.024;13.826;2022-11-25T07:49:07;3.50;99.90
1277;DHT22;631;51.024;13.826;2022-11-25T07:51:36;3.50;99.90
1277;DHT22;631;51.024;13.826;2022-11-25T07:54:05;3.60;99.90
1277;DHT22;631;51.024;13.826;2022-11-25T07:56:37;3.70;99.90
1277;DHT22;631;51.024;13.826;2022-11-25T07:59:05;3.80;99.90
1277;DHT22;631;51.024;13.826;2022-11-25T08:01:31;3.90;99.90
1277;DHT22;631;51.024;13.826;2022-11-25T08:03:57;4.00;99.90
1277;DHT22;631;51.024;13.826;2022-11-25T08:06:25;4.10;99.90
1277;DHT22;631;51.024;13.826;2022-11-25T08:08:52;4.20;99.90
1277;DHT22;631;51.024;13.826;2022-11-25T08:11:22;4.40;99.90
1277;DHT22;631;51.024;13.826;2022-11-25T08:13:48;4.80;99.90
1277;DHT22;631;51.024;13.826;2022-11-25T08:16:16;5.10;99.90
1277;DHT22;631;51.024;13.826;2022-11-25T08:18:43;5.40;99.90
1277;DHT22;631;51.024;13.826;2022-11-25T08:21:10;5.80;99.90
1277;DHT22;631;51.024;13.826;2022-11-25T08:23:38;6.50;99.90
1277;DHT22;631;51.024;13.826;2022-11-25T08:26:10;6.60;99.90
1277;DHT22;631;51.024;13.826;2022-11-25T08:28:37;7.10;99.90
1277;DHT22;631;51.024;13.826;2022-11-25T08:31:08;7.40;99.90
1277;DHT22;631;51.024;13.826;2022-11-25T08:33:34;7.70;99.90
1277;DHT22;631;51.024;13.826;2022-11-25T08:36:00;7.30;99.90
1277;DHT22;631;51.024;13.826;2022-11-25T08:38:26;7.40;99.90
1277;DHT22;631;51.024;13.826;2022-11-25T08:40:53;8.00;99.90
1277;DHT22;631;51.024;13.826;2022-11-25T08:43:18;8.40;99.90
1277;DHT22;631;51.024;13.826;2022-11-25T08:45:49;8.70;99.90
1277;DHT22;631;51.024;13.826;2022-11-25T08:48:17;8.70;99.90
1277;DHT22;631;51.024;13.826;2022-11-25T08:50:48;8.50;99.90
1277;DHT22;631;51.024;13.826;2022-11-25T08:53:15;8.50;99.90
1277;DHT22;631;51.024;13.826;2022-11-25T08:55:41;8.60;99.90
1277;DHT22;631;51.024;13.826;2022-11-25T08:58:07;8.60;99.90
1277;DHT22;631;51.024;13.826;2022-11-25T09:00:36;8.80;99.90
1277;DHT22;631;51.024;13.826;2022-11-25T09:03:02;9.20;99.90
1277;DHT22;631;51.024;13.826;2022-11-25T09:05:28;9.40;99.90
1277;DHT22;631;51.024;13.826;2022-11-25T09:08:03;9.50;99.90
1277;DHT22;631;51.024;13.826;2022-11-25T09:10:30;9.30;99.90
1277;DHT22;631;51.024;13.826;2022-11-25T09:12:56;9.50;99.90
1277;DHT22;631;51.024;13.826;2022-11-25T09:15:22;9.70;99.90
1277;DHT22;631;51.024;13.826;2022-11-25T09:17:47;10.10;99.90
1277;DHT22;631;51.024;13.826;2022-11-25T09:20:13;10.70;99.90
1277;DHT22;631;51.024;13.826;2022-11-25T09:22:39;10.90;99.90
1277;DHT22;631;51.024;13.826;2022-11-25T09:25:05;11.30;99.90
1277;DHT22;631;51.024;13.826;2022-11-25T09:27:31;11.90;99.90
1277;DHT22;631;51.024;13.826;2022-11-25T09:29:56;11.90;99.90
1277;DHT22;631;51.024;13.826;2022-11-25T09:32:22;11.50;99.90
1277;DHT22;631;51.024;13.826;2022-11-25T09:34:48;11.30;99.90
1277;DHT22;631;51.024;13.826;2022-11-25T09:37:13;11.10;99.90
1277;DHT22;631;51.024;13.826;2022-11-25T09:39:39;10.60;99.90
1277;DHT22;631;51.024;13.826;2022-11-25T09:53:34;11.50;99.90
1277;DHT22;631;51.024;13.826;2022-11-25T09:56:19;12.00;99.90
1277;DHT22;631;51.024;13.826;2022-11-25T10:01:24;12.90;99.90
1277;DHT22;631;51.024;13.826;2022-11-25T10:04:12;13.20;99.90
1277;DHT22;631;51.024;13.826;2022-11-25T10:07:07;13.40;98.80
1277;DHT22;631;51.024;13.826;2022-11-25T10:09:35;13.30;99.90
1277;DHT22;631;51.024;13.826;2022-11-25T10:12:15;13.60;96.50
1277;DHT22;631;51.024;13.826;2022-11-25T10:14:47;13.70;96.40
1277;DHT22;631;51.024;13.826;2022-11-25T10:20:19;14.30;93.90
1277;DHT22;631;51.024;13.826;2022-11-25T10:22:48;14.30;94.30
1277;DHT22;631;51.024;13.826;2022-11-25T10:25:51;15.10;93.50
1277;DHT22;631;51.024;13.826;2022-11-25T10:28:23;15.30;91.50
1277;DHT22;631;51.024;13.826;2022-11-25T10:31:09;14.90;89.40
1277;DHT22;631;51.024;13.826;2022-11-25T10:33:38;14.70;89.20
1277;DHT22;631;51.024;13.826;2022-11-25T10:36:22;14.90;91.20
1277;DHT22;631;51.024;13.826;2022-11-25T10:38:59;14.90;88.10
1277;DHT22;631;51.024;13.826;2022-11-25T10:41:31;15.30;88.40
1277;DHT22;631;51.024;13.826;2022-11-25T10:43:59;15.80;86.90
1277;DHT22;631;51.024;13.826;2022-11-25T10:46:43;15.60;83.40
1277;DHT22;631;51.024;13.826;2022-11-25T10:49:22;15.50;84.20
1277;DHT22;631;51.024;13.826;2022-11-25T10:51:50;15.60;85.40
1277;DHT22;631;51.024;13.826;2022-11-25T10:54:24;15.50;85.10
1277;DHT22;631;51.024;13.826;2022-11-25T10:56:54;16.00;83.90
1277;DHT22;631;51.024;13.826;2022-11-25T10:59:31;16.00;84.50
1277;DHT22;631;51.024;13.826;2022-11-25T11:02:17;16.40;82.20
1277;DHT22;631;51.024;13.826;2022-11-25T11:04:54;16.20;80.40
1277;DHT22;631;51.024;13.826;2022-11-25T11:07:20;17.10;78.70
1277;DHT22;631;51.024;13.826;2022-11-25T11:09:47;17.40;76.60
1277;DHT22;631;51.024;13.826;2022-11-25T11:12:23;16.70;73.00
1277;DHT22;631;51.024;13.826;2022-11-25T11:14:50;16.40;76.50
1277;DHT22;631;51.024;13.826;2022-11-25T11:17:35;16.10;76.60
1277;DHT22;631;51.024;13.826;2022-11-25T11:20:15;15.60;80.30
1277;DHT22;631;51.024;13.826;2022-11-25T11:23:07;15.40;82.30
1277;DHT22;631;51.024;13.826;2022-11-25T11:25:35;15.50;82.00
1277;DHT22;631;51.024;13.826;2022-11-25T11:28:02;16.20;80.40
1277;DHT22;631;51.024;13.826;2022-11-25T11:30:31;16.40;78.10
1277;DHT22;631;51.024;13.826;2022-11-25T11:33:06;16.50;77.90
1277;DHT22;631;51.024;13.826;2022-11-25T11:38:33;16.70;77.40
1277;DHT22;631;51.024;13.826;2022-11-25T11:41:23;17.00;76.50
1277;DHT22;631;51.024;13.826;2022-11-25T11:44:29;16.90;73.40
1277;DHT22;631;51.024;13.826;2022-11-25T11:47:17;17.30;72.70
1277;DHT22;631;51.024;13.826;2022-11-25T11:50:00;17.20;71.70
1277;DHT22;631;51.024;13.826;2022-11-25T11:58:35;16.20;71.40
1277;DHT22;631;51.024;13.826;2022-11-25T12:03:42;15.50;76.90
1277;DHT22;631;51.024;13.826;2022-11-25T12:06:12;16.00;80.40
1277;DHT22;631;51.024;13.826;2022-11-25T12:08:50;16.50;77.10
1277;DHT22;631;51.024;13.826;2022-11-25T12:11:20;15.60;74.20
1277;DHT22;631;51.024;13.826;2022-11-25T12:14:01;14.80;81.00
1277;DHT22;631;51.024;13.826;2022-11-25T12:16:42;14.00;87.70
1277;DHT22;631;51.024;13.826;2022-11-25T12:24:51;12.80;98.60
1277;DHT22;631;51.024;13.826;2022-11-25T12:27:32;12.90;98.10
1277;DHT22;631;51.024;13.826;2022-11-25T12:30:15;12.70;98.90
1277;DHT22;631;51.024;13.826;2022-11-25T12:36:14;11.40;99.90
1277;DHT22;631;51.024;13.826;2022-11-25T12:38:53;11.60;99.90
1277;DHT22;631;51.024;13.826;2022-11-25T12:46:52;11.40;99.90
1277;DHT22;631;51.024;13.826;2022-11-25T13:00:23;11.70;99.90
1277;DHT22;631;51.024;13.826;2022-11-25T13:10:39;12.00;99.90
1277;DHT22;631;51.024;13.826;2022-11-25T13:16:00;12.30;99.90
1277;DHT22;631;51.024;13.826;2022-11-25T13:18:29;12.90;99.90
1277;DHT22;631;51.024;13.826;2022-11-25T13:20:55;13.30;99.90
1277;DHT22;631;51.024;13.826;2022-11-25T13:23:39;13.40;99.70
1277;DHT22;631;51.024;13.826;2022-11-25T13:28:53;12.40;99.90
1277;DHT22;631;51.024;13.826;2022-11-25T13:31:30;12.30;99.90
1277;DHT22;631;51.024;13.826;2022-11-25T13:36:24;12.20;99.90
1277;DHT22;631;51.024;13.826;2022-11-25T13:49:51;12.40;99.90
1277;DHT22;631;51.024;13.826;2022-11-25T13:52:25;11.90;99.90
1277;DHT22;631;51.024;13.826;2022-11-25T13:54:53;11.60;99.90
1277;DHT22;631;51.024;13.826;2022-11-25T13:57:36;11.40;99.90
1277;DHT22;631;51.024;13.826;2022-11-25T14:17:37;9.20;99.90
1277;DHT22;631;51.024;13.826;2022-11-25T14:22:52;9.10;99.90
1277;DHT22;631;51.024;13.826;2022-11-25T14:25:23;9.00;99.90
1277;DHT22;631;51.024;13.826;2022-11-25T14:28:06;8.90;99.90
1277;DHT22;631;51.024;13.826;2022-11-25T14:30:33;8.60;99.90
1277;DHT22;631;51.024;13.826;2022-11-25T14:33:05;8.50;99.90
1277;DHT22;631;51.024;13.826;2022-11-25T14:35:50;8.40;99.90
1277;DHT22;631;51.024;13.826;2022-11-25T14:38:39;8.20;99.90
1277;DHT22;631;51.024;13.826;2022-11-25T14:41:15;8.10;99.90
1277;DHT22;631;51.024;13.826;2022-11-25T14:43:49;7.90;99.90
1277;DHT22;631;51.024;13.826;2022-11-25T14:46:19;7.70;99.90
1277;DHT22;631;51.024;13.826;2022-11-25T14:48:52;7.70;99.90
1277;DHT22;631;51.024;13.826;2022-11-25T14:51:19;7.60;99.90
1277;DHT22;631;51.024;13.826;2022-11-25T14:53:46;7.50;99.90
1277;DHT22;631;51.024;13.826;2022-11-25T14:56:14;7.50;99.90
1277;DHT22;631;51.024;13.826;2022-11-25T14:59:00;7.50;99.90
1277;DHT22;631;51.024;13.826;2022-11-25T15:01:34;7.50;99.90
1277;DHT22;631;51.024;13.826;2022-11-25T15:04:06;7.40;99.90
1277;DHT22;631;51.024;13.826;2022-11-25T15:06:37;7.40;99.90
1277;DHT22;631;51.024;13.826;2022-11-25T15:09:14;7.40;99.90
1277;DHT22;631;51.024;13.826;2022-11-25T15:11:41;7.30;99.90
1277;DHT22;631;51.024;13.826;2022-11-25T15:14:17;7.20;99.90
1277;DHT22;631;51.024;13.826;2022-11-25T15:16:44;7.20;99.90
1277;DHT22;631;51.024;13.826;2022-11-25T15:19:17;7.20;99.90
1277;DHT22;631;51.024;13.826;2022-11-25T15:21:43;7.10;99.90
1277;DHT22;631;51.024;13.826;2022-11-25T15:26:58;6.90;99.90
1277;DHT22;631;51.024;13.826;2022-11-25T15:29:27;6.90;99.90
1277;DHT22;631;51.024;13.826;2022-11-25T15:31:53;6.90;99.90
1277;DHT22;631;51.024;13.826;2022-11-25T15:34:21;6.80;99.90
1277;DHT22;631;51.024;13.826;2022-11-25T15:36:49;6.70;99.90
1277;DHT22;631;51.024;13.826;2022-11-25T15:41:42;6.70;99.90
1277;DHT22;631;51.024;13.826;2022-11-25T15:44:19;6.70;99.90
1277;DHT22;631;51.024;13.826;2022-11-25T15:46:56;6.70;99.90
1277;DHT22;631;51.024;13.826;2022-11-25T15:49:24;6.70;99.90
1277;DHT22;631;51.024;13.826;2022-11-25T15:51:54;6.60;99.90
1277;DHT22;631;51.024;13.826;2022-11-25T15:56:50;6.60;99.90
1277;DHT22;631;51.024;13.826;2022-11-25T16:10:24;6.50;99.90
1277;DHT22;631;51.024;13.826;2022-11-25T16:21:11;6.40;99.90
1277;DHT22;631;51.024;13.826;2022-11-25T16:23:41;6.40;99.90
1277;DHT22;631;51.024;13.826;2022-11-25T16:26:15;6.40;99.90
1277;DHT22;631;51.024;13.826;2022-11-25T16:28:48;6.40;99.90
1277;DHT22;631;51.024;13.826;2022-11-25T16:31:15;6.40;99.90
1277;DHT22;631;51.024;13.826;2022-11-25T16:33:41;6.30;99.90
1277;DHT22;631;51.024;13.826;2022-11-25T16:36:07;6.30;99.90
1277;DHT22;631;51.024;13.826;2022-11-25T16:38:33;6.30;99.90
1277;DHT22;631;51.024;13.826;2022-11-25T16:40:59;6.30;99.90
1277;DHT22;631;51.024;13.826;2022-11-25T16:43:29;6.30;99.90
1277;DHT22;631;51.024;13.826;2022-11-25T16:45:54;6.20;99.90
1277;DHT22;631;51.024;13.826;2022-11-25T16:48:22;6.20;99.90
1277;DHT22;631;51.024;13.826;2022-11-25T16:50:49;6.20;99.90
1277;DHT22;631;51.024;13.826;2022-11-25T16:53:14;6.20;99.90
1277;DHT22;631;51.024;13.826;2022-11-25T16:55:42;6.20;99.90
1277;DHT22;631;51.024;13.826;2022-11-25T16:58:18;6.10;99.90
1277;DHT22;631;51.024;13.826;2022-11-25T17:00:51;6.10;99.90
1277;DHT22;631;51.024;13.826;2022-11-25T17:03:18;6.10;99.90
1277;DHT22;631;51.024;13.826;2022-11-25T17:05:44;6.10;99.90
1277;DHT22;631;51.024;13.826;2022-11-25T17:08:11;6.10;99.90
1277;DHT22;631;51.024;13.826;2022-11-25T17:10:37;6.10;99.90
1277;DHT22;631;51.024;13.826;2022-11-25T17:13:03;6.20;99.90
1277;DHT22;631;51.024;13.826;2022-11-25T17:15:34;6.20;99.90
1277;DHT22;631;51.024;13.826;2022-11-25T17:18:01;6.10;99.90
1277;DHT22;631;51.024;13.826;2022-11-25T17:20:27;6.10;99.90
1277;DHT22;631;51.024;13.826;2022-11-25T17:22:53;6.10;99.90
1277;DHT22;631;51.024;13.826;2022-11-25T17:25:20;6.10;99.90
1277;DHT22;631;51.024;13.826;2022-11-25T17:27:47;6.00;99.90
1277;DHT22;631;51.024;13.826;2022-11-25T17:30:20;6.00;99.90
1277;DHT22;631;51.024;13.826;2022-11-25T17:32:46;5.90;99.90
1277;DHT22;631;51.024;13.826;2022-11-25T17:35:18;5.90;99.90
1277;DHT22;631;51.024;13.826;2022-11-25T17:37:44;5.90;99.90
1277;DHT22;631;51.024;13.826;2022-11-25T17:40:11;5.90;99.90
1277;DHT22;631;51.024;13.826;2022-11-25T17:42:37;5.90;99.90
1277;DHT22;631;51.024;13.826;2022-11-25T17:45:12;5.90;99.90
1277;DHT22;631;51.024;13.826;2022-11-25T17:47:38;5.80;99.90
1277;DHT22;631;51.024;13.826;2022-11-25T17:50:18;5.80;99.90
1277;DHT22;631;51.024;13.826;2022-11-25T17:52:44;5.90;99.90
1277;DHT22;631;51.024;13.826;2022-11-25T17:55:09;5.90;99.90
1277;DHT22;631;51.024;13.826;2022-11-25T17:57:36;5.90;99.90
1277;DHT22;631;51.024;13.826;2022-11-25T18:00:02;5.90;99.90
1277;DHT22;631;51.024;13.826;2022-11-25T18:02:28;6.00;99.90
1277;DHT22;631;51.024;13.826;2022-11-25T18:04:54;6.10;99.90
1277;DHT22;631;51.024;13.826;2022-11-25T18:07:20;6.10;99.90
1277;DHT22;631;51.024;13.826;2022-11-25T18:09:45;6.10;99.90
1277;DHT22;631;51.024;13.826;2022-11-25T18:12:24;6.00;99.90
1277;DHT22;631;51.024;13.826;2022-11-25T18:14:51;6.00;99.90
1277;DHT22;631;51.024;13.826;2022-11-25T18:17:17;6.00;99.90
1277;DHT22;631;51.024;13.826;2022-11-25T18:19:43;6.00;99.90
1277;DHT22;631;51.024;13.826;2022-11-25T18:22:15;6.00;99.90
1277;DHT22;631;51.024;13.826;2022-11-25T18:24:41;6.00;99.90
1277;DHT22;631;51.024;13.826;2022-11-25T18:27:12;6.00;99.90
1277;DHT22;631;51.024;13.826;2022-11-25T18:29:40;6.00;99.90
1277;DHT22;631;51.024;13.826;2022-11-25T18:32:08;6.00;99.90
1277;DHT22;631;51.024;13.826;2022-11-25T18:34:34;6.00;99.90
1277;DHT22;631;51.024;13.826;2022-11-25T18:37:00;6.10;99.90
1277;DHT22;631;51.024;13.826;2022-11-25T18:39:27;6.00;99.90